Time;durP1;ratioP1;P1;durP2;ratioP2;P2;SDS_P1;SDS_P2;PMS_P1;PMS_P2;Temp;Humidity;BMP_temperature;BMP_pressure;BME280_temperature;BME280_humidity;BME280_pressure;Samples;Min_cycle;Max_cycle;Signal;HPM_P1;HPM_P2
2021/08/13 00:00:12;;;;;;;7.97;5.30;;;22.20;99.90;;;;;;4146630;28;20025;-72
2021/08/13 00:02:15;;;;;;;6.95;5.20;;;22.20;99.90;;;;;;4153628;28;20505;-72
2021/08/13 00:04:15;;;;;;;7.95;5.20;;;22.10;99.90;;;;;;4157922;28;20041;-72
2021/08/13 00:06:16;;;;;;;7.57;5.68;;;22.10;99.90;;;;;;4160580;28;20117;-72
2021/08/13 00:08:16;;;;;;;7.78;5.38;;;22.10;99.90;;;;;;4160855;28;20033;-72
2021/08/13 00:10:17;;;;;;;7.93;4.93;;;22.00;99.90;;;;;;4159154;28;20025;-72
2021/08/13 00:12:18;;;;;;;8.93;5.28;;;22.10;99.90;;;;;;4157112;28;20381;-72
2021/08/13 00:14:18;;;;;;;7.47;5.45;;;22.00;99.90;;;;;;4159390;28;20125;-72
2021/08/13 00:16:19;;;;;;;9.38;5.00;;;22.00;99.90;;;;;;4156768;28;20176;-72
2021/08/13 00:18:20;;;;;;;6.45;5.18;;;22.00;99.90;;;;;;4150989;28;20470;-72
2021/08/13 00:20:20;;;;;;;7.82;5.03;;;22.00;99.90;;;;;;4149679;28;20072;-72
2021/08/13 00:22:21;;;;;;;7.70;5.18;;;22.00;99.90;;;;;;4160513;28;20036;-72
2021/08/13 00:24:22;;;;;;;7.45;5.28;;;22.00;99.90;;;;;;4157779;28;20450;-72
2021/08/13 00:26:23;;;;;;;6.28;4.75;;;22.00;99.90;;;;;;4158878;28;20037;-72
2021/08/13 00:28:23;;;;;;;7.68;4.95;;;21.90;99.90;;;;;;4159436;28;20121;-72
2021/08/13 00:30:24;;;;;;;7.30;4.90;;;21.80;99.90;;;;;;4152542;28;20485;-72
2021/08/13 00:32:24;;;;;;;7.25;5.35;;;21.80;99.90;;;;;;4158971;28;20497;-72
2021/08/13 00:34:25;;;;;;;8.25;5.20;;;21.80;99.90;;;;;;4146995;28;20030;-73
2021/08/13 00:36:26;;;;;;;7.32;5.03;;;21.80;99.90;;;;;;4144253;28;20095;-72
2021/08/13 00:38:26;;;;;;;7.97;5.53;;;21.70;99.90;;;;;;4155835;28;20478;-72
2021/08/13 00:40:27;;;;;;;7.68;5.55;;;21.70;99.90;;;;;;4147692;28;20477;-72
2021/08/13 00:42:28;;;;;;;8.20;5.18;;;21.70;99.90;;;;;;4149085;28;20045;-72
2021/08/13 00:44:30;;;;;;;7.55;5.38;;;21.70;99.90;;;;;;4155226;28;20124;-72
2021/08/13 00:46:30;;;;;;;8.50;5.40;;;21.70;99.90;;;;;;4140058;28;20042;-72
2021/08/13 00:48:31;;;;;;;11.05;5.32;;;21.70;99.90;;;;;;4151332;28;20038;-72
2021/08/13 00:50:32;;;;;;;8.98;5.43;;;21.70;99.90;;;;;;4158237;28;20034;-72
2021/08/13 00:52:33;;;;;;;8.85;5.10;;;21.60;99.90;;;;;;4159913;28;20092;-72
2021/08/13 00:54:34;;;;;;;6.60;4.85;;;21.60;99.90;;;;;;4158777;28;20452;-72
2021/08/13 00:56:34;;;;;;;8.02;5.03;;;21.60;99.90;;;;;;4125261;28;20030;-72
2021/08/13 00:58:35;;;;;;;6.78;5.00;;;21.60;99.90;;;;;;4139682;28;20681;-72
2021/08/13 01:00:37;;;;;;;7.22;5.05;;;21.60;99.90;;;;;;4140813;28;20541;-72
2021/08/13 01:02:38;;;;;;;6.75;5.20;;;21.60;99.90;;;;;;4147799;28;20080;-72
2021/08/13 01:04:39;;;;;;;8.10;5.28;;;21.50;99.90;;;;;;4147886;28;20561;-72
2021/08/13 01:06:40;;;;;;;7.82;5.50;;;21.50;99.90;;;;;;4160692;28;20604;-72
2021/08/13 01:08:41;;;;;;;8.82;5.13;;;21.50;99.90;;;;;;4158484;28;20064;-72
2021/08/13 01:10:59;;;;;;;7.20;5.20;;;21.50;99.90;;;;;;4159855;28;20470;-72
2021/08/13 01:13:17;;;;;;;8.98;5.32;;;21.50;99.90;;;;;;4159180;28;20428;-72
2021/08/13 01:15:19;;;;;;;8.88;6.00;;;21.40;99.90;;;;;;4156048;28;20045;-72
2021/08/13 01:17:23;;;;;;;8.63;5.63;;;21.40;99.90;;;;;;4159684;28;20090;-72
2021/08/13 01:19:23;;;;;;;9.02;5.60;;;21.40;99.90;;;;;;4153723;28;20040;-72
2021/08/13 01:21:41;;;;;;;8.23;5.35;;;21.50;99.90;;;;;;4155869;28;20049;-72
2021/08/13 01:23:49;;;;;;;8.73;6.03;;;21.40;99.90;;;;;;4159270;28;20046;-72
2021/08/13 01:25:55;;;;;;;11.02;5.65;;;21.40;99.90;;;;;;4155433;28;20426;-72
2021/08/13 01:27:58;;;;;;;8.77;5.47;;;21.40;99.90;;;;;;4158034;28;20073;-72
2021/08/13 01:30:08;;;;;;;8.73;6.00;;;21.40;99.90;;;;;;4159936;28;20049;-72
2021/08/13 01:32:12;;;;;;;7.80;6.25;;;21.40;99.90;;;;;;4152226;28;20599;-72
2021/08/13 01:34:15;;;;;;;7.40;5.20;;;21.40;99.90;;;;;;4159757;28;20064;-72
2021/08/13 01:36:17;;;;;;;7.28;5.40;;;21.40;99.90;;;;;;4162414;28;20061;-72
2021/08/13 01:38:24;;;;;;;7.43;5.45;;;21.40;99.90;;;;;;4155025;28;20044;-72
2021/08/13 01:40:28;;;;;;;10.25;6.13;;;21.40;99.90;;;;;;4159493;28;21014;-72
2021/08/13 01:42:29;;;;;;;13.73;5.53;;;21.30;99.90;;;;;;4159154;28;20033;-72
2021/08/13 01:44:32;;;;;;;9.30;5.87;;;21.30;99.90;;;;;;4155426;28;20444;-72
2021/08/13 01:46:33;;;;;;;7.78;5.55;;;21.30;99.90;;;;;;4154044;28;20037;-72
2021/08/13 01:48:35;;;;;;;7.65;5.30;;;21.30;99.90;;;;;;4158143;28;20035;-72
2021/08/13 01:50:37;;;;;;;11.10;5.88;;;21.30;99.90;;;;;;4147771;28;20100;-72
2021/08/13 01:52:38;;;;;;;8.73;5.70;;;21.20;99.90;;;;;;4159316;28;20551;-72
2021/08/13 01:54:39;;;;;;;7.60;5.57;;;21.30;99.90;;;;;;4153232;28;20541;-72
2021/08/13 01:56:41;;;;;;;6.70;5.00;;;21.20;99.90;;;;;;4150457;28;20083;-72
2021/08/13 01:58:42;;;;;;;8.93;5.68;;;21.20;99.90;;;;;;4154087;28;20033;-72
2021/08/13 02:00:44;;;;;;;8.02;5.60;;;21.20;99.90;;;;;;4124320;28;20035;-72
2021/08/13 02:02:45;;;;;;;8.05;5.30;;;21.20;99.90;;;;;;4153444;28;20370;-72
2021/08/13 02:04:46;;;;;;;7.32;5.60;;;21.20;99.90;;;;;;4155492;28;20061;-72
2021/08/13 02:06:48;;;;;;;10.05;5.78;;;21.20;99.90;;;;;;4141603;28;20413;-72
2021/08/13 02:08:49;;;;;;;7.27;5.30;;;21.20;99.90;;;;;;4153978;28;20381;-72
2021/08/13 02:10:51;;;;;;;8.07;5.20;;;21.20;99.90;;;;;;4144268;28;20041;-72
2021/08/13 02:12:52;;;;;;;10.23;5.47;;;21.30;99.90;;;;;;4142117;28;20392;-72
2021/08/13 02:14:53;;;;;;;6.53;5.30;;;21.20;99.90;;;;;;4155995;28;20040;-72
2021/08/13 02:16:55;;;;;;;7.43;4.80;;;21.20;99.90;;;;;;4167249;28;20068;-72
2021/08/13 02:19:15;;;;;;;8.15;5.53;;;21.30;99.90;;;;;;4169932;28;20041;-72
2021/08/13 02:21:18;;;;;;;8.30;5.10;;;21.30;99.90;;;;;;4140667;28;20041;-72
2021/08/13 02:23:19;;;;;;;7.25;5.18;;;21.30;99.90;;;;;;4139424;28;20087;-72
2021/08/13 02:25:20;;;;;;;9.25;5.85;;;21.20;99.90;;;;;;4139334;28;20033;-72
2021/08/13 02:27:22;;;;;;;9.52;6.03;;;21.20;99.90;;;;;;4140635;28;20719;-72
2021/08/13 02:29:23;;;;;;;7.10;5.20;;;21.20;99.90;;;;;;4141586;28;20045;-72
2021/08/13 02:31:23;;;;;;;10.23;6.28;;;21.20;99.90;;;;;;4141847;28;20088;-72
2021/08/13 02:33:24;;;;;;;9.50;6.53;;;21.10;99.90;;;;;;4140196;28;20038;-72
2021/08/13 02:35:25;;;;;;;9.30;6.53;;;21.20;99.90;;;;;;4141473;28;20040;-72
2021/08/13 02:37:30;;;;;;;8.73;5.90;;;21.10;99.90;;;;;;4137531;28;20041;-72
2021/08/13 02:39:55;;;;;;;8.27;6.25;;;21.10;99.90;;;;;;4142712;28;20057;-72
2021/08/13 02:41:59;;;;;;;8.90;6.13;;;21.10;99.90;;;;;;4138370;28;20045;-72
2021/08/13 02:44:02;;;;;;;8.63;6.22;;;21.10;99.90;;;;;;4152946;28;20064;-72
2021/08/13 02:46:05;;;;;;;9.30;6.18;;;21.10;99.90;;;;;;4156833;28;20044;-72
2021/08/13 02:48:07;;;;;;;11.05;7.22;;;21.00;99.90;;;;;;4155620;28;20033;-72
2021/08/13 02:50:10;;;;;;;10.10;7.38;;;21.10;99.90;;;;;;4153322;28;20033;-72
2021/08/13 02:52:13;;;;;;;11.00;7.45;;;21.10;99.90;;;;;;4155434;28;20117;-72
2021/08/13 02:54:24;;;;;;;10.73;7.30;;;21.10;99.90;;;;;;4155883;28;20570;-72
2021/08/13 02:56:28;;;;;;;11.38;7.53;;;21.00;99.90;;;;;;4151838;28;20091;-72
2021/08/13 02:58:49;;;;;;;12.10;7.70;;;21.10;99.90;;;;;;4155077;28;20045;-72
2021/08/13 03:00:51;;;;;;;11.07;7.65;;;21.10;99.90;;;;;;4138633;28;20057;-72
2021/08/13 03:02:53;;;;;;;;;;;21.10;99.90;;;;;;4154290;28;20444;-72
2021/08/13 03:04:55;;;;;;;11.10;7.88;;;21.10;99.90;;;;;;4149928;28;20354;-72
2021/08/13 03:06:55;;;;;;;10.88;7.50;;;21.00;99.90;;;;;;4154491;28;20120;-72
2021/08/13 03:08:58;;;;;;;10.20;7.68;;;21.00;99.90;;;;;;4156198;28;20207;-72
2021/08/13 03:11:01;;;;;;;12.80;7.82;;;21.00;99.90;;;;;;4155422;28;20022;-72
2021/08/13 03:13:01;;;;;;;11.95;8.18;;;21.00;99.90;;;;;;4154058;28;20026;-72
2021/08/13 03:15:03;;;;;;;13.43;7.82;;;21.00;99.90;;;;;;4148879;28;20052;-72
2021/08/13 03:17:04;;;;;;;12.65;7.45;;;21.00;99.90;;;;;;4147656;28;20086;-72
2021/08/13 03:19:05;;;;;;;10.07;6.63;;;21.00;99.90;;;;;;4145476;28;20034;-72
2021/08/13 03:21:06;;;;;;;11.23;7.28;;;21.00;99.90;;;;;;4160898;28;20090;-72
2021/08/13 03:23:07;;;;;;;11.95;7.10;;;21.00;99.90;;;;;;4143610;28;20088;-72
2021/08/13 03:25:08;;;;;;;9.32;6.65;;;21.00;99.90;;;;;;4142319;28;20068;-72
2021/08/13 03:27:09;;;;;;;9.85;7.00;;;21.00;99.90;;;;;;4155524;28;20503;-72
2021/08/13 03:29:10;;;;;;;9.75;6.75;;;21.00;99.90;;;;;;4155450;28;20053;-72
2021/08/13 03:31:37;;;;;;;9.77;7.03;;;21.00;99.90;;;;;;4159392;28;20029;-72
2021/08/13 03:33:37;;;;;;;10.68;6.68;;;21.00;99.90;;;;;;4158618;28;20038;-72
2021/08/13 03:35:39;;;;;;;9.40;7.05;;;21.00;99.90;;;;;;4156630;28;20401;-72
2021/08/13 03:37:40;;;;;;;10.38;7.57;;;21.00;99.90;;;;;;4146472;28;20485;-72
2021/08/13 03:39:41;;;;;;;10.07;6.95;;;21.00;99.90;;;;;;4145139;28;20034;-72
2021/08/13 03:41:42;;;;;;;8.80;6.78;;;21.00;99.90;;;;;;4147414;28;20494;-72
2021/08/13 03:43:43;;;;;;;9.63;7.03;;;21.00;99.90;;;;;;4153177;28;20179;-72
2021/08/13 03:45:43;;;;;;;10.85;6.78;;;21.00;99.90;;;;;;4152252;28;20033;-72
2021/08/13 03:47:44;;;;;;;9.38;6.45;;;21.00;99.90;;;;;;4142115;28;20517;-72
2021/08/13 03:49:44;;;;;;;9.10;7.00;;;21.00;99.90;;;;;;4143634;28;20073;-72
2021/08/13 03:51:45;;;;;;;8.57;6.07;;;21.00;99.90;;;;;;4150181;28;20044;-72
2021/08/13 03:53:46;;;;;;;8.45;6.15;;;21.00;99.90;;;;;;4161143;28;20478;-72
2021/08/13 03:55:47;;;;;;;10.25;7.10;;;21.00;99.90;;;;;;4145001;28;20034;-72
2021/08/13 03:57:47;;;;;;;9.73;7.07;;;21.00;99.90;;;;;;4143852;28;20034;-72
2021/08/13 03:59:48;;;;;;;10.00;6.85;;;21.00;99.90;;;;;;4144750;28;20040;-72
2021/08/13 04:01:48;;;;;;;9.02;6.55;;;21.00;99.90;;;;;;4139487;28;20481;-72
2021/08/13 04:03:49;;;;;;;8.93;6.43;;;21.00;99.90;;;;;;4142589;28;20534;-72
2021/08/13 04:05:49;;;;;;;10.10;6.95;;;21.00;99.90;;;;;;4140469;28;20042;-72
2021/08/13 04:07:50;;;;;;;9.05;6.38;;;21.00;99.90;;;;;;4146441;28;20079;-72
2021/08/13 04:09:50;;;;;;;9.63;6.68;;;20.90;99.90;;;;;;4141131;28;20034;-72
2021/08/13 04:11:51;;;;;;;9.38;6.28;;;20.90;99.90;;;;;;4141589;28;20041;-72
2021/08/13 04:13:52;;;;;;;12.30;6.72;;;20.90;99.90;;;;;;4154741;28;20468;-72
2021/08/13 04:15:52;;;;;;;8.98;6.35;;;20.90;99.90;;;;;;4158372;28;20061;-72
2021/08/13 04:17:53;;;;;;;11.05;7.10;;;20.90;99.90;;;;;;4153565;28;20048;-72
2021/08/13 04:19:54;;;;;;;8.68;6.38;;;20.90;99.90;;;;;;4158497;28;20041;-72
2021/08/13 04:21:54;;;;;;;15.90;7.68;;;20.90;99.90;;;;;;4155887;28;20438;-72
2021/08/13 04:23:55;;;;;;;8.52;6.20;;;20.80;99.90;;;;;;4159120;28;20056;-72
2021/08/13 04:25:55;;;;;;;8.93;6.43;;;20.90;99.90;;;;;;4148712;28;20035;-72
2021/08/13 04:27:56;;;;;;;8.13;6.32;;;20.80;99.90;;;;;;4159540;28;20037;-72
2021/08/13 04:29:57;;;;;;;9.57;6.75;;;20.80;99.90;;;;;;4156335;28;20121;-72
2021/08/13 04:31:57;;;;;;;8.05;6.43;;;20.80;99.90;;;;;;4157511;28;20048;-72
2021/08/13 04:33:58;;;;;;;9.30;6.45;;;20.80;99.90;;;;;;4156680;28;20037;-72
2021/08/13 04:35:59;;;;;;;8.32;6.60;;;20.80;99.90;;;;;;4156934;28;20124;-72
2021/08/13 04:37:59;;;;;;;10.55;7.03;;;20.80;99.90;;;;;;4158811;28;20030;-72
2021/08/13 04:40:00;;;;;;;8.77;6.28;;;20.70;99.90;;;;;;4158699;28;20041;-72
2021/08/13 04:42:01;;;;;;;11.98;7.30;;;20.70;99.90;;;;;;4159610;28;20034;-72
2021/08/13 04:44:02;;;;;;;8.90;6.20;;;20.70;99.90;;;;;;4158423;28;20140;-72
2021/08/13 04:46:03;;;;;;;9.23;6.45;;;20.70;99.90;;;;;;4153601;28;20483;-72
2021/08/13 04:48:03;;;;;;;10.27;7.10;;;20.70;99.90;;;;;;4154996;28;20033;-72
2021/08/13 04:50:05;;;;;;;9.77;6.25;;;20.70;99.90;;;;;;4146005;28;20054;-72
2021/08/13 04:52:06;;;;;;;8.60;5.82;;;20.70;99.90;;;;;;4142105;28;20026;-72
2021/08/13 04:54:07;;;;;;;7.93;5.88;;;20.70;99.90;;;;;;4143338;28;20034;-72
2021/08/13 04:56:08;;;;;;;9.57;6.60;;;20.70;99.90;;;;;;4147885;28;20073;-72
2021/08/13 04:58:09;;;;;;;9.23;7.43;;;20.70;99.90;;;;;;4138815;28;20038;-72
2021/08/13 05:00:10;;;;;;;12.27;7.40;;;20.60;99.90;;;;;;4133729;28;20036;-72
2021/08/13 05:02:10;;;;;;;11.98;6.93;;;20.60;99.90;;;;;;4148646;28;20029;-72
2021/08/13 05:04:11;;;;;;;11.50;7.28;;;20.50;99.90;;;;;;4158843;28;20037;-72
2021/08/13 05:06:16;;;;;;;9.70;7.13;;;20.50;99.90;;;;;;4153173;28;20038;-72
2021/08/13 05:08:16;;;;;;;10.25;6.57;;;20.50;99.90;;;;;;4147765;28;20045;-72
2021/08/13 05:10:17;;;;;;;8.73;6.38;;;20.60;99.90;;;;;;4147269;28;20033;-72
2021/08/13 05:12:18;;;;;;;9.32;6.50;;;20.50;99.90;;;;;;4149102;28;20041;-72
2021/08/13 05:14:18;;;;;;;10.25;7.20;;;20.60;99.90;;;;;;4146047;28;20046;-72
2021/08/13 05:16:19;;;;;;;10.25;6.90;;;20.60;99.90;;;;;;4140309;28;20041;-72
2021/08/13 05:18:19;;;;;;;10.80;7.63;;;20.60;99.90;;;;;;4138136;28;20868;-72
2021/08/13 05:20:20;;;;;;;10.48;7.03;;;20.60;99.90;;;;;;4137380;28;20054;-72
2021/08/13 05:22:21;;;;;;;10.48;7.20;;;20.60;99.90;;;;;;4154171;28;20113;-72
2021/08/13 05:24:22;;;;;;;10.05;6.90;;;20.60;99.90;;;;;;4141615;28;20041;-72
2021/08/13 05:26:22;;;;;;;10.70;7.20;;;20.60;99.90;;;;;;4159643;28;20425;-72
2021/08/13 05:28:23;;;;;;;9.20;6.38;;;20.60;99.90;;;;;;4162179;28;20071;-72
2021/08/13 05:30:23;;;;;;;9.98;6.53;;;20.60;99.90;;;;;;4155779;28;20067;-72
2021/08/13 05:32:24;;;;;;;11.35;6.80;;;20.60;99.90;;;;;;4144929;28;20058;-72
2021/08/13 05:34:25;;;;;;;12.13;6.47;;;20.70;99.90;;;;;;4152435;28;20041;-72
2021/08/13 05:36:27;;;;;;;10.43;6.93;;;20.70;99.90;;;;;;4148808;28;20092;-72
2021/08/13 05:38:27;;;;;;;9.18;6.95;;;20.70;99.90;;;;;;4138959;28;20068;-72
2021/08/13 05:40:29;;;;;;;14.85;7.82;;;20.80;99.90;;;;;;4142822;28;20037;-72
2021/08/13 05:42:30;;;;;;;12.90;8.57;;;20.80;99.90;;;;;;4144008;28;20038;-72
2021/08/13 05:44:30;;;;;;;13.32;8.50;;;20.80;99.90;;;;;;4148264;28;20260;-72
2021/08/13 05:46:31;;;;;;;13.05;8.23;;;20.80;99.90;;;;;;4153966;28;20033;-72
2021/08/13 05:48:32;;;;;;;15.02;10.13;;;20.90;99.90;;;;;;4157300;28;20025;-72
2021/08/13 05:50:33;;;;;;;13.45;8.85;;;20.90;99.90;;;;;;4159531;28;20080;-73
2021/08/13 05:52:33;;;;;;;12.93;8.68;;;20.80;99.90;;;;;;4159710;28;20045;-72
2021/08/13 05:54:34;;;;;;;12.65;8.52;;;20.90;99.90;;;;;;4158221;28;20076;-72
2021/08/13 05:56:34;;;;;;;12.88;9.18;;;20.90;99.90;;;;;;4155162;28;20057;-72
2021/08/13 05:58:35;;;;;;;15.55;11.15;;;20.90;99.90;;;;;;4162693;28;20037;-72
2021/08/13 06:00:35;;;;;;;14.70;9.52;;;20.90;99.90;;;;;;4146207;28;20061;-72
2021/08/13 06:02:36;;;;;;;12.57;8.98;;;20.90;99.90;;;;;;4159781;28;20625;-73
2021/08/13 06:04:37;;;;;;;14.45;9.15;;;21.00;99.90;;;;;;4153667;28;20452;-72
2021/08/13 06:06:42;;;;;;;16.05;10.65;;;21.00;99.90;;;;;;4157839;28;20053;-72
2021/08/13 06:08:43;;;;;;;15.60;10.93;;;21.00;99.90;;;;;;4157862;28;20033;-72
2021/08/13 06:10:43;;;;;;;15.85;11.15;;;21.00;99.90;;;;;;4160227;28;20052;-72
2021/08/13 06:12:44;;;;;;;17.17;10.65;;;21.00;99.90;;;;;;4142167;28;20041;-73
2021/08/13 06:14:45;;;;;;;16.48;10.50;;;21.10;99.90;;;;;;4158558;28;20048;-73
2021/08/13 06:16:46;;;;;;;15.80;10.98;;;21.10;99.90;;;;;;4149763;28;20058;-72
2021/08/13 06:18:47;;;;;;;15.65;10.57;;;21.10;99.90;;;;;;4153102;28;20400;-72
2021/08/13 06:20:47;;;;;;;19.05;10.10;;;21.20;99.90;;;;;;4155746;28;20460;-72
2021/08/13 06:22:48;;;;;;;16.85;11.18;;;21.20;99.90;;;;;;4151144;28;20623;-72
2021/08/13 06:24:49;;;;;;;15.65;10.27;;;21.20;99.90;;;;;;4142710;28;20049;-72
2021/08/13 06:26:49;;;;;;;20.33;11.55;;;21.30;99.90;;;;;;4141111;28;20060;-73
2021/08/13 06:28:50;;;;;;;16.75;10.50;;;21.30;99.90;;;;;;4145478;28;20398;-72
2021/08/13 06:30:51;;;;;;;16.85;11.88;;;21.30;99.90;;;;;;4151312;28;20038;-72
2021/08/13 06:32:53;;;;;;;16.40;11.20;;;21.40;99.90;;;;;;4151065;28;20033;-72
2021/08/13 06:34:53;;;;;;;17.20;12.10;;;21.40;99.90;;;;;;4152730;28;20070;-72
2021/08/13 06:36:54;;;;;;;16.98;10.77;;;21.40;99.90;;;;;;4151685;28;20030;-72
2021/08/13 06:38:55;;;;;;;18.33;11.80;;;21.50;99.90;;;;;;4151107;28;20057;-72
2021/08/13 06:40:55;;;;;;;16.85;11.85;;;21.50;99.90;;;;;;4147723;28;20045;-72
2021/08/13 06:42:56;;;;;;;15.95;11.35;;;21.60;99.90;;;;;;4144205;28;20022;-72
2021/08/13 06:44:56;;;;;;;17.98;12.27;;;21.60;99.90;;;;;;4138036;28;20100;-72
2021/08/13 06:46:57;;;;;;;16.42;11.30;;;21.60;99.90;;;;;;4135783;28;20121;-72
2021/08/13 06:48:58;;;;;;;16.92;11.85;;;21.60;99.90;;;;;;4155276;28;20114;-72
2021/08/13 06:50:58;;;;;;;18.33;11.23;;;21.70;99.90;;;;;;4146556;28;20068;-72
2021/08/13 06:52:59;;;;;;;18.02;12.90;;;21.70;99.90;;;;;;4151690;28;20044;-72
2021/08/13 06:55:00;;;;;;;20.40;13.48;;;21.70;99.90;;;;;;4153498;28;20084;-72
2021/08/13 06:57:00;;;;;;;26.45;17.25;;;21.70;99.90;;;;;;4157497;28;20100;-72
2021/08/13 06:59:01;;;;;;;30.85;19.92;;;21.70;99.90;;;;;;4150511;28;20096;-72
2021/08/13 07:01:02;;;;;;;23.58;16.20;;;21.60;99.90;;;;;;4154130;28;20512;-72
2021/08/13 07:03:04;;;;;;;26.17;18.40;;;21.60;99.90;;;;;;4158366;28;20021;-72
2021/08/13 07:05:05;;;;;;;26.45;15.85;;;21.60;99.90;;;;;;4158736;28;20125;-72
2021/08/13 07:07:05;;;;;;;28.40;19.17;;;21.60;99.90;;;;;;4156295;28;20120;-73
2021/08/13 07:09:06;;;;;;;29.40;20.40;;;21.60;99.90;;;;;;4152363;28;20402;-73
2021/08/13 07:11:07;;;;;;;26.77;17.83;;;21.60;99.90;;;;;;4141744;28;20433;-73
2021/08/13 07:13:07;;;;;;;33.95;20.50;;;21.60;99.90;;;;;;4149277;28;20064;-73
2021/08/13 07:15:09;;;;;;;27.55;19.20;;;21.70;99.90;;;;;;4157005;28;20045;-73
2021/08/13 07:17:10;;;;;;;28.70;20.35;;;21.70;99.90;;;;;;4155207;28;20631;-73
2021/08/13 07:19:11;;;;;;;28.52;19.67;;;21.70;99.90;;;;;;4147580;28;20152;-73
2021/08/13 07:21:11;;;;;;;29.50;20.25;;;21.70;99.90;;;;;;4153503;28;20041;-72
2021/08/13 07:23:12;;;;;;;30.85;21.98;;;21.70;99.90;;;;;;4150069;28;20099;-72
2021/08/13 07:25:13;;;;;;;28.75;20.83;;;21.70;99.90;;;;;;4133316;28;20168;-72
2021/08/13 07:27:13;;;;;;;23.77;16.65;;;21.70;99.90;;;;;;4147113;28;20115;-72
2021/08/13 07:29:15;;;;;;;27.60;18.38;;;21.70;99.90;;;;;;4141476;28;20105;-72
2021/08/13 07:31:16;;;;;;;28.63;19.77;;;21.70;99.90;;;;;;4142713;28;20046;-72
2021/08/13 07:33:16;;;;;;;32.22;22.33;;;21.70;99.90;;;;;;4141040;28;20052;-72
2021/08/13 07:35:17;;;;;;;29.63;20.13;;;21.70;99.90;;;;;;4145576;28;20474;-72
2021/08/13 07:37:18;;;;;;;30.55;21.67;;;21.70;99.90;;;;;;4141919;28;20117;-71
2021/08/13 07:39:19;;;;;;;22.67;16.92;;;21.70;99.90;;;;;;4139942;28;20069;-72
2021/08/13 07:41:19;;;;;;;28.60;19.08;;;21.80;99.90;;;;;;4140449;28;20044;-72
2021/08/13 07:43:20;;;;;;;24.38;16.95;;;21.80;99.90;;;;;;4141578;28;20125;-72
2021/08/13 07:45:21;;;;;;;26.67;18.23;;;21.80;99.90;;;;;;4138775;28;20112;-72
2021/08/13 07:47:22;;;;;;;24.25;17.92;;;21.80;99.90;;;;;;4147094;28;20120;-71
2021/08/13 07:49:23;;;;;;;23.98;17.20;;;21.80;99.90;;;;;;4146256;28;20108;-72
2021/08/13 07:51:23;;;;;;;30.40;17.40;;;21.80;99.90;;;;;;4146833;28;20037;-72
2021/08/13 07:53:24;;;;;;;29.90;18.20;;;21.80;99.90;;;;;;4141317;28;20089;-72
2021/08/13 07:55:24;;;;;;;22.45;16.00;;;21.80;99.90;;;;;;4144174;28;20038;-71
2021/08/13 07:57:25;;;;;;;26.33;17.05;;;21.80;99.90;;;;;;4144381;28;20528;-72
2021/08/13 07:59:26;;;;;;;25.48;16.65;;;21.90;99.90;;;;;;4147662;28;20042;-72
2021/08/13 08:01:26;;;;;;;23.15;15.25;;;21.90;99.90;;;;;;4157032;28;20029;-72
2021/08/13 08:03:27;;;;;;;21.17;15.65;;;21.90;99.90;;;;;;4157974;28;20095;-72
2021/08/13 08:05:27;;;;;;;21.35;15.75;;;22.00;99.90;;;;;;4152180;28;20124;-72
2021/08/13 08:07:28;;;;;;;21.77;15.98;;;22.00;99.90;;;;;;4144330;28;20061;-72
2021/08/13 08:09:29;;;;;;;24.80;16.63;;;22.00;99.90;;;;;;4159138;28;20044;-72
2021/08/13 08:11:30;;;;;;;20.08;13.68;;;22.00;99.90;;;;;;4158644;28;20045;-72
2021/08/13 08:13:30;;;;;;;20.55;13.35;;;22.00;99.90;;;;;;4160000;28;20441;-72
2021/08/13 08:15:32;;;;;;;20.25;13.82;;;22.10;99.90;;;;;;4159665;28;20041;-72
2021/08/13 08:17:32;;;;;;;20.13;14.48;;;22.20;99.90;;;;;;4159289;28;20084;-72
2021/08/13 08:19:33;;;;;;;19.00;13.13;;;22.20;99.90;;;;;;4139781;28;20035;-72
2021/08/13 08:21:34;;;;;;;18.15;11.23;;;22.20;99.90;;;;;;4155772;28;20081;-72
2021/08/13 08:23:34;;;;;;;20.48;14.73;;;22.30;99.90;;;;;;4160911;28;20048;-72
2021/08/13 08:25:35;;;;;;;20.10;14.38;;;22.30;99.90;;;;;;4154514;28;20474;-72
2021/08/13 08:27:36;;;;;;;19.80;13.15;;;22.30;99.90;;;;;;4154068;28;20501;-71
2021/08/13 08:29:37;;;;;;;17.40;11.65;;;22.30;99.90;;;;;;4156587;28;20133;-72
2021/08/13 08:31:37;;;;;;;21.05;12.85;;;22.40;99.90;;;;;;4152463;28;20033;-72
2021/08/13 08:33:38;;;;;;;16.67;12.00;;;22.40;99.90;;;;;;4148948;28;20442;-71
2021/08/13 08:35:39;;;;;;;15.35;10.23;;;22.50;99.90;;;;;;4138324;28;20046;-72
2021/08/13 08:37:57;;;;;;;16.67;10.65;;;22.50;99.90;;;;;;4156701;28;20052;-72
2021/08/13 08:39:58;;;;;;;14.15;9.45;;;22.60;99.90;;;;;;4157312;28;20029;-72
2021/08/13 08:41:59;;;;;;;16.55;10.50;;;22.70;99.90;;;;;;4150943;28;20032;-72
2021/08/13 08:43:59;;;;;;;13.43;7.93;;;22.80;99.90;;;;;;4143741;28;20119;-72
2021/08/13 08:46:00;;;;;;;14.32;9.82;;;22.90;99.90;;;;;;4143805;28;20053;-72
2021/08/13 08:48:03;;;;;;;14.13;9.60;;;23.00;99.90;;;;;;4147981;28;20052;-72
2021/08/13 08:50:05;;;;;;;12.18;8.27;;;23.00;99.90;;;;;;4144897;28;20120;-72
2021/08/13 08:52:10;;;;;;;8.75;6.32;;;23.10;99.90;;;;;;4158456;28;20037;-72
2021/08/13 08:54:12;;;;;;;9.40;6.47;;;23.20;99.90;;;;;;4161608;28;20104;-72
2021/08/13 08:56:16;;;;;;;10.05;6.72;;;23.20;99.90;;;;;;4155962;28;20050;-72
2021/08/13 08:58:18;;;;;;;7.65;5.55;;;23.30;99.90;;;;;;4172750;28;20045;-72
2021/08/13 09:00:19;;;;;;;7.32;5.22;;;23.30;99.90;;;;;;4167013;28;20061;-72
2021/08/13 09:02:19;;;;;;;7.65;5.28;;;23.40;99.90;;;;;;4160340;28;20084;-72
2021/08/13 09:04:20;;;;;;;8.50;5.82;;;23.50;99.90;;;;;;4145767;28;20533;-72
2021/08/13 09:06:22;;;;;;;7.28;5.25;;;23.50;99.90;;;;;;4159024;28;20545;-72
2021/08/13 09:08:22;;;;;;;7.53;4.83;;;23.60;99.90;;;;;;4154798;28;20028;-72
2021/08/13 09:10:23;;;;;;;9.25;6.03;;;23.70;99.90;;;;;;4157521;28;20044;-72
2021/08/13 09:12:24;;;;;;;8.63;5.57;;;23.70;99.90;;;;;;4154489;28;20041;-75
2021/08/13 09:14:41;;;;;;;7.55;5.40;;;23.80;99.90;;;;;;4161343;28;20037;-72
2021/08/13 09:17:00;;;;;;;7.15;4.75;;;23.80;99.90;;;;;;4146574;28;20037;-72
2021/08/13 09:19:06;;;;;;;6.85;4.57;;;23.90;99.90;;;;;;4153362;28;21923;-72
2021/08/13 09:21:07;;;;;;;9.00;4.78;;;24.00;99.90;;;;;;4153689;28;20057;-73
2021/08/13 09:23:08;;;;;;;6.55;4.70;;;24.10;99.90;;;;;;4159291;28;20417;-73
2021/08/13 09:25:09;;;;;;;10.70;5.78;;;24.10;99.90;;;;;;4162471;28;20033;-72
2021/08/13 09:27:29;;;;;;;8.05;5.03;;;24.30;99.90;;;;;;4158029;28;20471;-72
2021/08/13 09:29:29;;;;;;;7.45;5.40;;;24.30;99.90;;;;;;4156704;28;20040;-72
2021/08/13 09:31:33;;;;;;;5.93;4.15;;;24.40;99.90;;;;;;4159580;28;20030;-72
2021/08/13 09:33:35;;;;;;;5.20;4.10;;;24.40;99.90;;;;;;4142718;28;20043;-72
2021/08/13 09:35:42;;;;;;;6.68;3.85;;;24.40;99.90;;;;;;4149610;28;20056;-72
2021/08/13 09:37:48;;;;;;;4.93;3.28;;;24.40;99.90;;;;;;4157632;28;20057;-72
2021/08/13 09:39:54;;;;;;;4.00;2.90;;;24.50;99.90;;;;;;4156423;28;20544;-72
2021/08/13 09:42:00;;;;;;;4.30;2.70;;;24.60;99.90;;;;;;4157699;28;20136;-72
2021/08/13 09:44:02;;;;;;;6.60;3.15;;;24.60;99.90;;;;;;4161181;28;20037;-72
2021/08/13 09:46:06;;;;;;;4.10;2.60;;;24.70;99.90;;;;;;4147830;28;20133;-72
2021/08/13 09:48:21;;;;;;;6.32;3.10;;;24.70;99.90;;;;;;4154721;28;20038;-72
2021/08/13 09:50:40;;;;;;;4.15;3.38;;;24.80;99.90;;;;;;4146706;28;20156;-72
2021/08/13 09:52:42;;;;;;;5.50;3.47;;;24.90;99.90;;;;;;4156419;28;20037;-72
2021/08/13 09:54:44;;;;;;;5.10;3.33;;;25.00;99.90;;;;;;4138467;28;20033;-72
2021/08/13 09:56:45;;;;;;;3.22;2.13;;;25.00;99.90;;;;;;4159894;28;20022;-72
2021/08/13 09:58:45;;;;;;;3.88;1.67;;;25.10;99.90;;;;;;4153399;28;20065;-72
2021/08/13 10:00:47;;;;;;;2.55;1.90;;;25.20;99.90;;;;;;4142700;28;20176;-72
2021/08/13 10:02:48;;;;;;;2.45;1.90;;;25.20;99.90;;;;;;4141700;28;20117;-72
2021/08/13 10:04:49;;;;;;;3.20;1.92;;;25.20;99.90;;;;;;4142336;28;20506;-72
2021/08/13 10:06:54;;;;;;;3.95;2.13;;;25.20;99.90;;;;;;4143570;28;20038;-72
2021/08/13 10:08:55;;;;;;;2.65;1.90;;;25.30;99.90;;;;;;4139928;28;20053;-72
2021/08/13 10:11:10;;;;;;;2.95;2.17;;;25.30;99.90;;;;;;4142558;28;20471;-72
2021/08/13 10:13:12;;;;;;;3.80;1.90;;;25.30;99.90;;;;;;4144730;28;20060;-72
2021/08/13 10:15:32;;;;;;;2.10;1.67;;;25.40;99.90;;;;;;4121537;28;20077;-72
2021/08/13 10:17:33;;;;;;;1.65;1.55;;;25.40;99.90;;;;;;4138862;28;20100;-72
2021/08/13 10:19:34;;;;;;;2.53;1.83;;;25.40;99.90;;;;;;4136570;28;20050;-72
2021/08/13 10:21:34;;;;;;;1.98;1.60;;;25.50;99.90;;;;;;4157619;28;20040;-73
2021/08/13 10:23:35;;;;;;;2.78;1.77;;;25.60;99.90;;;;;;4158959;28;20101;-72
2021/08/13 10:25:37;;;;;;;2.40;2.05;;;25.60;99.90;;;;;;4156581;28;20048;-72
2021/08/13 10:27:40;;;;;;;3.53;1.60;;;25.70;99.90;;;;;;4153331;28;20052;-72
2021/08/13 10:29:41;;;;;;;;;;;25.70;99.90;;;;;;4157839;28;20044;-72